»·PEaware :: AAL211 KSNA-CYVR

AAL211 :: KSNA-CYVR

FLIGHT INFORMATION

Flight Status: Arrived
Operator:
American Airlines
More flights by this operator :: More flights under this callsign
Pilot: Robert M. (1649)
Aircraft: BOEING 737-800
(B738)
More flights by this aircraft type
Origin: KSNA John Wayne-Orange Co
United States
Destination: CYVR Vancouver Intl
Canada
More flights between these airports :: More routes between these airports
Route: CHANL2 RZS SNS PAE4
File this flight plan on PilotEdge
Remarks:
Altitude:
(Current/Filed)
28,000ft
Speed:
(Current/Filed)
350kts
Departed: 08-Aug-16 09:59 PM
Arrived: 08-Aug-16 11:41 PM
Distance/Time
Traveled:
960nm/1:42
Distance/Time
To Go:
Arrived

Flight Plot

Page will automatically refresh every two minutes.


Map Options




Map Legend


Flown Route
Filed Route
Departure Airport
Arrival Airport
Navaid (VOR, NDB)
Fix

Horizontal Profiles

Position Reports

Time Latitude Longitude Heading Altitude Ground
Speed
08-Aug-16 21:40 33.675699 -117.864638 120 65ft 0kts
08-Aug-16 21:41 33.675699 -117.864638 120 65ft 0kts
08-Aug-16 21:42 33.675699 -117.864638 120 65ft 0kts
08-Aug-16 21:43 33.675699 -117.864638 120 65ft 0kts
08-Aug-16 21:44 33.675699 -117.864638 120 65ft 0kts
08-Aug-16 21:45 33.675699 -117.864638 120 65ft 0kts
08-Aug-16 21:46 33.675699 -117.864638 120 65ft 0kts
08-Aug-16 21:47 33.675699 -117.864638 120 65ft 0kts
08-Aug-16 21:48 33.675699 -117.864638 120 65ft 0kts
08-Aug-16 21:49 33.675699 -117.864638 120 65ft 0kts
08-Aug-16 21:50 33.675699 -117.864638 120 65ft 0kts
08-Aug-16 21:51 33.675699 -117.864638 120 65ft 0kts
08-Aug-16 21:52 33.675699 -117.864638 120 65ft 0kts
08-Aug-16 21:53 33.675729 -117.864699 120 65ft 1kts
08-Aug-16 21:54 33.675731 -117.865591 60 65ft 2kts
08-Aug-16 21:55 33.675917 -117.865376 36 65ft 4kts
08-Aug-16 21:56 33.679072 -117.863361 27 65ft 9kts
08-Aug-16 21:57 33.681173 -117.864339 296 65ft 13kts
08-Aug-16 21:58 33.659745 -117.878921 208 701ft 205kts
08-Aug-16 21:59 33.597435 -117.896263 203 4743ft 259kts
08-Aug-16 22:00 33.587800 -117.972219 305 8954ft 284kts
08-Aug-16 22:01 33.625820 -118.055442 298 12423ft 294kts
08-Aug-16 22:02 33.668728 -118.141781 298 16073ft 308kts
08-Aug-16 22:03 33.713779 -118.232566 298 19267ft 323kts
08-Aug-16 22:04 33.759936 -118.325948 298 22014ft 338kts
08-Aug-16 22:05 33.809067 -118.425379 298 24476ft 352kts
08-Aug-16 22:06 33.859708 -118.528253 298 26720ft 361kts
08-Aug-16 22:07 33.911829 -118.634165 298 27897ft 370kts
08-Aug-16 22:09 33.990006 -118.793577 297 27929ft 367kts
08-Aug-16 22:10 34.066791 -118.950436 297 27929ft 365kts
08-Aug-16 22:11 34.116843 -119.053059 298 27929ft 366kts
08-Aug-16 22:12 34.175752 -119.160014 300 27930ft 404kts
08-Aug-16 22:13 34.238532 -119.274517 300 27930ft 411kts
08-Aug-16 22:14 34.301809 -119.390118 300 27934ft 411kts
08-Aug-16 22:15 34.365059 -119.505883 300 27934ft 411kts
08-Aug-16 22:16 34.427131 -119.619528 300 27924ft 411kts
08-Aug-16 22:17 34.489584 -119.735352 300 27918ft 411kts
08-Aug-16 22:18 34.574448 -119.826382 322 27920ft 419kts
08-Aug-16 22:19 34.670529 -119.907139 321 27929ft 419kts
08-Aug-16 22:20 34.766265 -119.988339 321 27933ft 418kts
08-Aug-16 22:21 34.858577 -120.066490 321 27934ft 418kts
08-Aug-16 22:22 34.954157 -120.147485 320 27940ft 417kts
08-Aug-16 22:23 35.049686 -120.228536 320 27942ft 417kts
08-Aug-16 22:24 35.145226 -120.309571 320 27942ft 417kts
08-Aug-16 22:25 35.153462 -120.316574 320 27942ft 417kts
08-Aug-16 22:48 37.610790 -121.660138 349 27919ft 436kts
08-Aug-16 22:49 37.732415 -121.667486 349 27904ft 436kts
08-Aug-16 22:50 37.853688 -121.674794 349 27895ft 437kts
08-Aug-16 22:51 37.975366 -121.682128 349 27884ft 437kts
08-Aug-16 22:52 38.097083 -121.689452 349 27847ft 437kts
08-Aug-16 22:53 38.218759 -121.696787 349 27835ft 436kts
08-Aug-16 22:54 38.339976 -121.704068 349 27825ft 436kts
08-Aug-16 22:55 38.461637 -121.711409 349 27828ft 437kts
08-Aug-16 22:56 38.583264 -121.718722 349 27825ft 436kts
08-Aug-16 22:57 38.704878 -121.726050 349 27820ft 437kts
08-Aug-16 22:58 38.826708 -121.733371 349 27818ft 437kts
08-Aug-16 22:59 38.947976 -121.740676 349 27817ft 437kts
08-Aug-16 23:00 39.073680 -121.748448 350 27821ft 473kts
08-Aug-16 23:01 39.207078 -121.756224 350 27821ft 480kts
08-Aug-16 23:02 39.340971 -121.764337 350 27828ft 480kts
08-Aug-16 23:03 39.474311 -121.772326 350 27833ft 480kts
08-Aug-16 23:04 39.607723 -121.780362 350 27843ft 479kts
08-Aug-16 23:05 39.741065 -121.788377 350 27844ft 478kts
08-Aug-16 23:06 39.874356 -121.796381 350 27844ft 478kts
08-Aug-16 23:07 40.197203 -121.816144 350 27850ft 477kts
08-Aug-16 23:08 40.727554 -121.848341 351 27892ft 473kts
08-Aug-16 23:09 41.248263 -121.879581 352 28016ft 461kts
08-Aug-16 23:10 41.755247 -121.910079 353 28070ft 450kts
08-Aug-16 23:11 42.254049 -121.940181 353 28087ft 449kts
08-Aug-16 23:12 42.755254 -121.970083 353 28080ft 450kts
08-Aug-16 23:13 43.255046 -122.000079 352 28085ft 446kts
08-Aug-16 23:14 43.742173 -122.029305 352 28100ft 438kts
08-Aug-16 23:15 44.230498 -122.058517 352 28096ft 437kts
08-Aug-16 23:16 44.714642 -122.087702 354 28084ft 430kts
08-Aug-16 23:17 45.189069 -122.116007 355 28069ft 422kts
08-Aug-16 23:18 45.655387 -122.144047 356 28068ft 419kts
08-Aug-16 23:19 46.115962 -122.171526 356 28077ft 403kts
08-Aug-16 23:20 46.565669 -122.198304 357 28077ft 403kts
08-Aug-16 23:21 47.013579 -122.225063 358 28071ft 401kts
08-Aug-16 23:22 47.457772 -122.251835 0 28051ft 392kts
08-Aug-16 23:23 47.867050 -122.275336 1 28069ft 356kts
08-Aug-16 23:24 48.226104 -122.366625 350 21694ft 299kts
08-Aug-16 23:25 48.547015 -122.461046 349 16017ft 299kts
08-Aug-16 23:26 48.799818 -122.677246 319 10507ft 288kts
08-Aug-16 23:27 48.854730 -122.757974 311 9607ft 266kts
08-Aug-16 23:28 48.903139 -122.842816 310 8420ft 263kts
08-Aug-16 23:29 48.950629 -122.926524 309 7261ft 258kts
08-Aug-16 23:30 48.997286 -123.008024 310 6129ft 253kts
08-Aug-16 23:31 49.061731 -123.026911 28 4916ft 234kts
08-Aug-16 23:32 49.080558 -122.954899 80 3505ft 190kts
08-Aug-16 23:33 49.088441 -122.876327 81 3012ft 188kts
08-Aug-16 23:34 49.120485 -122.838790 316 3010ft 188kts
08-Aug-16 23:35 49.150878 -122.904014 303 3007ft 187kts
08-Aug-16 23:36 49.169180 -122.976535 271 2882ft 183kts
08-Aug-16 23:37 49.172515 -123.051650 284 1011ft 163kts
08-Aug-16 23:38 49.176405 -123.100680 273 574ft 149kts
08-Aug-16 23:39 49.186297 -123.175513 278 23ft 52kts
08-Aug-16 23:40 49.188646 -123.177426 311 23ft 11kts
08-Aug-16 23:41 49.190003 -123.180602 9 23ft 7kts
08-Aug-16 23:42 49.191384 -123.179701 40 23ft 0kts

Navigation Log

Ident Type
1. KSNA Airport
2. SXC Navaid
3. VTU Navaid
4. RZS Navaid
5. SNS Navaid
6. CYVR Airport